Wolfe City, Texas
Current Conditions -  °F | °C
As of 2:55 PM on Sunday 23 Nov 2014 (Local Time) from KGVT Reporting Station
Clear Clear  
Wind Chill: 73°   Ceiling: Unl
Heat Index: 73°   Visibility: 10mi
Dew Point: 41°   Wind: 18mph
Humidity: 31%   Direction: 230°SW
Pressure: 29.38"   Gusts: 25mph
Location:  33.37°N, 96.07°W
Report Text: KGVT 232055Z AUTO 23016G22KT 10SM CLR 23/05 A2938 RMK AO2
Loading
Personal Weather Stations






























Interactive Weather Map New forecast layout! Learn more

10-Day Weather Forecast

Advertisements
Track Severe Weather on mobile